Homewood, Alabama
Current Conditions -  °F | °C
As of 8:53 AM on Saturday 20 Dec 2014 (Local Time) from KBHM Reporting Station
Overcast Overcast  
Wind Chill: 38°   Ceiling: 3100
Heat Index: 42°   Visibility: 7mi
Dew Point: 38°   Wind: 6mph
Humidity: 85%   Direction: 10°N
Pressure: 30.25"   Gusts: NA
Location:  33.48°N, 86.79°W
Report Text: KBHM 201453Z 01005KT 7SM OVC031 06/03 A3025 RMK AO2 SLP246 T00560033 53012
Loading
Personal Weather Stations






























Interactive Weather Map New forecast layout! Learn more

10-Day Weather Forecast

Advertisements
Track Severe Weather on mobile